Accueil
METAR-TAF:

METAR-TAF

Aéroports :

Aéroport d'Angers-Loire

Angers, France

latitude: 47-33-37N, longitude: 000-18-44W, altitude: 59 m

Observation

Le bulletin a été fait il y a 38 minutes, à 11:00 UTC
Vent 8 kt de est/nord-est, variant entre nord/nord-est et est
Température 16°C
Humidité 68%
Pression 1029 hPa
Visibilité: 8000 m

METAR: LFJR 201100Z AUTO 06008KT 020V090 8000 NSC 16/10 Q1029 NOSIG

Heure: 13:38 (11:38 UTC)

Prévision

Le bulletin a été fait il y a 3 heures et 38 minutes, à 08:00 UTC
Prévision valable du 20 à 09 UTC au 20 à 18 UTC
Vent 5 kt de nord-est
Visibilité 10 km ou plus
pas de nuages en-dessous de 1500 mètres et pas de cumulonimbus.

TAF: LFJR 200800Z 2009/2018 04005KT CAVOK

Observations et prévisions météorologiques de plus de 4000 aéroports (messages METAR et TAF).

Les stations disponibles sont représentées par des disques jaunes et rouges sur la carte.

Passer la souris dessus pour voir le nom de la station.

Cliquer dessus pour voir les observations et prévisions météorologiques.

Pour changer de carte: cliquez sur les boutons verts avec une croix noire pour zoomer, sur le bouton vert avec un tiret pour effectuer un zoom arrière, ou sur les flèches vertes pour les cartes adjacentes.


METAR-TAF: